createdAt,value
2018-12-26T00:01:37.911Z,-1.00
2018-12-26T00:04:06.292Z,-1.20
2018-12-26T00:06:34.675Z,-1.60
2018-12-26T00:09:07.171Z,-1.60
2018-12-26T00:11:35.544Z,-1.50
2018-12-26T00:14:05.088Z,-1.40
2018-12-26T00:16:33.465Z,-1.50
2018-12-26T00:19:01.855Z,-1.50
2018-12-26T00:21:31.804Z,-1.60
2018-12-26T00:24:00.310Z,-1.50
2018-12-26T00:26:30.134Z,-1.50
2018-12-26T00:29:00.157Z,-1.80
2018-12-26T00:31:28.556Z,-1.70
2018-12-26T00:33:56.932Z,-1.60
2018-12-26T00:36:26.559Z,-1.40
2018-12-26T00:38:55.031Z,-1.30
2018-12-26T00:41:23.419Z,-1.30
2018-12-26T00:43:51.808Z,-1.20
2018-12-26T00:46:21.457Z,-1.10
2018-12-26T00:48:49.860Z,-1.10
2018-12-26T00:51:18.332Z,-1.10
2018-12-26T00:53:46.703Z,-1.00
2018-12-26T00:56:15.816Z,-1.00
2018-12-26T00:58:44.611Z,-1.10
2018-12-26T01:01:14.288Z,-1.10
2018-12-26T01:03:44.645Z,-1.10
2018-12-26T01:06:13.047Z,-1.20
2018-12-26T01:08:41.494Z,-1.20
2018-12-26T01:11:09.903Z,-1.10
2018-12-26T01:13:38.283Z,-1.00
2018-12-26T01:16:06.692Z,-1.50
2018-12-26T01:18:35.094Z,-1.30
2018-12-26T01:21:03.521Z,-1.30
2018-12-26T01:23:31.900Z,-1.40
2018-12-26T01:26:00.408Z,-1.40
2018-12-26T01:28:28.833Z,-1.30
2018-12-26T01:30:57.240Z,-1.40
2018-12-26T01:33:25.640Z,-1.40
2018-12-26T01:35:56.164Z,-1.30
2018-12-26T01:38:25.724Z,-1.80
2018-12-26T01:40:55.659Z,-1.70
2018-12-26T01:43:24.127Z,-1.70
2018-12-26T01:45:52.526Z,-1.90
2018-12-26T01:48:20.985Z,-2.00
2018-12-26T01:50:49.379Z,-2.10
2018-12-26T01:53:18.764Z,-2.20
2018-12-26T01:55:48.984Z,-2.20
2018-12-26T01:58:17.345Z,-2.20
2018-12-26T02:00:45.715Z,-2.30
2018-12-26T02:03:14.114Z,-2.30
2018-12-26T02:05:42.883Z,-2.30
2018-12-26T02:08:11.676Z,-2.30
2018-12-26T02:10:40.043Z,-2.30
2018-12-26T02:13:08.473Z,-2.20
2018-12-26T02:15:37.139Z,-2.20
2018-12-26T02:18:05.642Z,-2.20
2018-12-26T02:20:34.487Z,-2.20
2018-12-26T02:23:02.907Z,-2.20
2018-12-26T02:25:31.279Z,-2.30
2018-12-26T02:27:59.680Z,-2.40
2018-12-26T02:30:28.063Z,-2.50
2018-12-26T02:32:56.519Z,-2.50
2018-12-26T02:35:24.967Z,-2.50
2018-12-26T02:37:53.360Z,-2.50
2018-12-26T02:40:21.784Z,-2.60
2018-12-26T02:42:50.136Z,-2.50
2018-12-26T02:45:18.582Z,-2.50
2018-12-26T02:47:46.992Z,-2.50
2018-12-26T02:50:15.359Z,-2.50
2018-12-26T02:52:43.769Z,-2.50
2018-12-26T02:55:12.140Z,-2.50
2018-12-26T02:57:40.849Z,-2.60
2018-12-26T03:00:09.298Z,-2.70
2018-12-26T03:02:37.710Z,-2.80
2018-12-26T03:05:07.715Z,-2.80
2018-12-26T03:07:36.170Z,-2.90
2018-12-26T03:10:06.468Z,-2.90
2018-12-26T03:12:34.864Z,-2.90
2018-12-26T03:15:03.505Z,-2.80
2018-12-26T03:17:33.544Z,-2.80
2018-12-26T03:20:01.944Z,-2.80
2018-12-26T03:22:30.538Z,-2.70
2018-12-26T03:24:58.915Z,-2.70
2018-12-26T03:27:27.630Z,-2.80
2018-12-26T03:29:56.018Z,-2.70
2018-12-26T03:32:26.298Z,-2.60
2018-12-26T03:34:54.706Z,-2.60
2018-12-26T03:37:23.118Z,-2.40
2018-12-26T03:39:51.526Z,-2.20
2018-12-26T03:42:19.905Z,-2.10
2018-12-26T03:44:48.472Z,-2.10
2018-12-26T03:47:16.908Z,-2.10
2018-12-26T03:49:45.335Z,-2.10
2018-12-26T03:52:13.708Z,-2.00
2018-12-26T03:54:42.112Z,-2.00
2018-12-26T03:57:10.558Z,-2.00
2018-12-26T03:59:38.965Z,-1.90
2018-12-26T04:02:07.349Z,-1.90
2018-12-26T04:04:35.744Z,-1.80
2018-12-26T04:07:04.392Z,-1.80
2018-12-26T04:09:32.793Z,-2.00
2018-12-26T04:12:01.177Z,-1.80
2018-12-26T04:14:29.574Z,-1.80
2018-12-26T04:16:57.948Z,-1.90
2018-12-26T04:19:26.748Z,-1.90
2018-12-26T04:21:55.121Z,-2.00
2018-12-26T04:24:23.525Z,-2.00
2018-12-26T04:26:51.919Z,-2.00
2018-12-26T04:29:20.320Z,-2.00
2018-12-26T04:31:48.880Z,-2.00
2018-12-26T04:34:17.276Z,-2.00
2018-12-26T04:36:45.654Z,-2.00
2018-12-26T04:39:14.046Z,-2.10
2018-12-26T04:41:42.484Z,-2.30
2018-12-26T04:44:10.883Z,-2.50
2018-12-26T04:46:39.256Z,-2.60
2018-12-26T04:49:07.797Z,-2.70
2018-12-26T04:51:38.200Z,-2.80
2018-12-26T04:54:06.600Z,-2.90
2018-12-26T04:56:34.975Z,-3.00
2018-12-26T04:59:04.719Z,-3.10
2018-12-26T05:01:33.096Z,-3.10
2018-12-26T05:04:01.486Z,-3.10
2018-12-26T05:06:30.233Z,-3.20
2018-12-26T05:08:58.638Z,-3.10
2018-12-26T05:11:27.034Z,-3.10
2018-12-26T05:13:55.496Z,-3.10
2018-12-26T05:16:23.987Z,-3.10
2018-12-26T05:18:52.332Z,-3.10
2018-12-26T05:21:20.808Z,-3.20
2018-12-26T05:23:52.092Z,-3.30
2018-12-26T05:26:20.760Z,-3.40
2018-12-26T05:28:49.152Z,-3.50
2018-12-26T05:31:20.674Z,-3.50
2018-12-26T05:33:50.675Z,-3.50
2018-12-26T05:36:19.084Z,-3.50
2018-12-26T05:38:47.742Z,-3.50
2018-12-26T05:41:16.187Z,-3.50
2018-12-26T05:43:44.571Z,-3.50
2018-12-26T05:46:12.989Z,-3.50
2018-12-26T05:48:43.015Z,-3.50
2018-12-26T05:51:12.303Z,-3.50
2018-12-26T05:53:42.090Z,-3.60
2018-12-26T05:56:10.488Z,-3.60
2018-12-26T05:58:38.866Z,-3.60
2018-12-26T06:01:07.273Z,-3.50
2018-12-26T06:03:35.936Z,-3.50
2018-12-26T06:06:05.968Z,-3.50
2018-12-26T06:08:34.349Z,-3.50
2018-12-26T06:11:02.758Z,-3.50
2018-12-26T06:13:31.136Z,-3.50
2018-12-26T06:15:59.535Z,-3.50
2018-12-26T06:18:29.303Z,-3.50
2018-12-26T06:20:57.700Z,-3.50
2018-12-26T06:23:26.081Z,-3.50
2018-12-26T06:25:54.485Z,-3.50
2018-12-26T06:28:22.856Z,-3.50
2018-12-26T06:30:52.513Z,-3.50
2018-12-26T06:33:20.886Z,-3.50
2018-12-26T06:35:49.290Z,-3.40
2018-12-26T06:38:17.933Z,-3.40
2018-12-26T06:40:47.565Z,-3.50
2018-12-26T06:43:15.932Z,-3.50
2018-12-26T06:45:44.330Z,-3.60
2018-12-26T06:48:12.712Z,-3.60
2018-12-26T06:50:41.087Z,-3.60
2018-12-26T06:53:09.491Z,-3.50
2018-12-26T06:55:37.883Z,-3.60
2018-12-26T06:58:06.288Z,-3.80
2018-12-26T07:00:34.673Z,-4.00
2018-12-26T07:03:04.701Z,-4.10
2018-12-26T07:05:33.072Z,-4.10
2018-12-26T07:08:01.495Z,-4.10
2018-12-26T07:10:29.886Z,-4.20
2018-12-26T07:12:58.363Z,-4.20
2018-12-26T07:15:28.380Z,-4.10
2018-12-26T07:17:56.863Z,-4.00
2018-12-26T07:20:25.244Z,-4.10
2018-12-26T07:22:53.666Z,-4.10
2018-12-26T07:25:22.419Z,-4.20
2018-12-26T07:27:50.821Z,-4.20
2018-12-26T07:30:19.206Z,-4.30
2018-12-26T07:32:49.247Z,-4.30
2018-12-26T07:35:17.721Z,-4.20
2018-12-26T07:37:47.334Z,-4.20
2018-12-26T07:40:16.259Z,-4.20
2018-12-26T07:42:44.712Z,-4.10
2018-12-26T07:45:13.097Z,-3.40
2018-12-26T07:47:41.491Z,-2.50
2018-12-26T07:50:09.936Z,-1.40
2018-12-26T07:52:38.336Z,-0.50
2018-12-26T07:55:06.705Z,0.20
2018-12-26T07:57:35.095Z,1.60
2018-12-26T08:00:03.640Z,3.20
2018-12-26T08:02:32.065Z,5.20
2018-12-26T08:05:00.439Z,6.40
2018-12-26T08:07:28.854Z,7.10
2018-12-26T08:09:57.216Z,8.20
2018-12-26T08:12:25.621Z,8.80
2018-12-26T08:14:54.026Z,9.20
2018-12-26T08:17:22.398Z,9.30
2018-12-26T08:19:50.803Z,8.40
2018-12-26T08:22:19.182Z,7.90
2018-12-26T08:24:47.599Z,6.60
2018-12-26T08:27:15.996Z,6.70
2018-12-26T08:29:45.403Z,6.50
2018-12-26T08:32:13.780Z,5.70
2018-12-26T08:34:43.914Z,6.40
2018-12-26T08:37:12.267Z,6.80
2018-12-26T08:39:40.657Z,6.20
2018-12-26T08:42:09.027Z,5.70
2018-12-26T08:44:37.415Z,5.70
2018-12-26T08:47:05.796Z,5.70
2018-12-26T08:49:34.364Z,6.00
2018-12-26T08:52:03.087Z,6.70
2018-12-26T08:54:31.481Z,7.70
2018-12-26T08:56:59.860Z,9.00
2018-12-26T08:59:28.273Z,10.10
2018-12-26T09:01:59.063Z,11.30
2018-12-26T09:04:27.397Z,14.00
2018-12-26T09:06:55.780Z,15.50
2018-12-26T09:09:24.204Z,15.40
2018-12-26T09:11:52.585Z,17.30
2018-12-26T09:14:20.996Z,17.70
2018-12-26T09:16:53.860Z,18.80
2018-12-26T09:19:22.267Z,17.00
2018-12-26T09:21:50.685Z,18.10
2018-12-26T09:24:19.121Z,20.40
2018-12-26T09:26:49.150Z,21.70
2018-12-26T09:29:20.034Z,22.30
2018-12-26T09:31:48.422Z,23.40
2018-12-26T09:34:16.842Z,24.80
2018-12-26T09:36:45.260Z,25.10
2018-12-26T09:39:13.863Z,25.80
2018-12-26T09:41:42.239Z,26.20
2018-12-26T09:44:10.639Z,25.60
2018-12-26T09:46:39.117Z,24.30
2018-12-26T09:49:07.496Z,23.80
2018-12-26T09:51:35.938Z,23.60
2018-12-26T09:54:04.349Z,23.10
2018-12-26T09:56:34.376Z,20.90
2018-12-26T09:59:02.751Z,20.00
2018-12-26T10:01:31.154Z,21.30
2018-12-26T10:04:00.959Z,21.80
2018-12-26T10:06:29.351Z,23.10
2018-12-26T10:08:57.736Z,23.40
2018-12-26T10:11:26.160Z,21.80
2018-12-26T10:13:54.577Z,22.80
2018-12-26T10:16:22.991Z,22.30
2018-12-26T10:18:51.359Z,22.80
2018-12-26T10:21:19.759Z,24.10
2018-12-26T10:23:49.282Z,23.00
2018-12-26T10:26:17.673Z,24.10
2018-12-26T10:28:47.375Z,23.30
2018-12-26T10:31:15.819Z,24.10
2018-12-26T10:33:44.213Z,24.20
2018-12-26T10:36:12.635Z,25.70
2018-12-26T10:38:41.011Z,25.60
2018-12-26T10:41:09.439Z,26.40
2018-12-26T10:43:38.196Z,26.90
2018-12-26T10:46:06.609Z,27.60
2018-12-26T10:48:35.079Z,26.90
2018-12-26T10:51:03.464Z,26.80
2018-12-26T10:53:31.855Z,26.40
2018-12-26T10:56:00.315Z,26.60
2018-12-26T10:58:28.700Z,26.70
2018-12-26T11:00:57.108Z,25.50
2018-12-26T11:03:25.496Z,25.80
2018-12-26T11:05:54.006Z,24.70
2018-12-26T11:08:24.044Z,26.20
2018-12-26T11:10:52.445Z,27.10
2018-12-26T11:13:20.825Z,27.10
2018-12-26T11:15:49.304Z,28.70
2018-12-26T11:18:17.697Z,27.90
2018-12-26T11:20:46.097Z,27.50
2018-12-26T11:23:14.471Z,27.60
2018-12-26T11:25:42.846Z,27.30
2018-12-26T11:28:11.258Z,27.80
2018-12-26T11:30:39.637Z,26.40
2018-12-26T11:33:08.047Z,27.20
2018-12-26T11:35:36.419Z,27.30
2018-12-26T11:38:06.089Z,27.00
2018-12-26T11:40:34.513Z,27.10
2018-12-26T11:43:02.885Z,27.30
2018-12-26T11:45:31.353Z,24.40
2018-12-26T11:47:59.843Z,25.10
2018-12-26T11:50:28.227Z,24.10
2018-12-26T11:52:56.724Z,23.20
2018-12-26T11:55:25.154Z,22.80
2018-12-26T11:57:53.900Z,21.60
2018-12-26T12:00:22.275Z,19.10
2018-12-26T12:02:50.667Z,17.60
2018-12-26T12:05:19.055Z,14.70
2018-12-26T12:07:47.457Z,14.90
2018-12-26T12:10:15.927Z,13.20
2018-12-26T12:12:44.348Z,13.50
2018-12-26T12:15:12.729Z,13.60
2018-12-26T12:17:41.126Z,13.60
2018-12-26T12:20:10.291Z,13.60
2018-12-26T12:22:38.895Z,12.60
2018-12-26T12:25:07.280Z,12.10
2018-12-26T12:27:36.108Z,12.10
2018-12-26T12:30:05.636Z,11.80
2018-12-26T12:32:34.030Z,11.40
2018-12-26T12:35:02.417Z,10.80
2018-12-26T12:37:30.820Z,10.30
2018-12-26T12:39:59.202Z,9.80
2018-12-26T12:42:29.888Z,9.80
2018-12-26T12:44:58.956Z,9.40
2018-12-26T12:47:27.363Z,9.30
2018-12-26T12:50:15.164Z,8.50
2018-12-26T12:52:43.572Z,8.20
2018-12-26T12:55:11.933Z,6.70
2018-12-26T12:57:40.328Z,5.40
2018-12-26T13:00:09.207Z,5.60
2018-12-26T13:02:40.832Z,5.30
2018-12-26T13:05:09.232Z,5.30
2018-12-26T13:07:37.614Z,5.20
2018-12-26T13:10:06.353Z,5.20
2018-12-26T13:12:35.240Z,5.30
2018-12-26T13:15:03.793Z,4.90
2018-12-26T13:17:32.169Z,4.80
2018-12-26T13:20:00.888Z,4.90
2018-12-26T13:22:29.767Z,4.90
2018-12-26T13:24:58.428Z,5.00
2018-12-26T13:27:26.823Z,5.10
2018-12-26T13:29:55.335Z,5.00
2018-12-26T13:32:23.717Z,4.30
2018-12-26T13:34:54.057Z,4.50
2018-12-26T13:37:22.449Z,4.00
2018-12-26T13:39:50.848Z,4.00
2018-12-26T13:42:19.225Z,3.80
2018-12-26T13:44:47.705Z,3.80
2018-12-26T13:47:16.079Z,3.70
2018-12-26T13:49:44.471Z,3.60
2018-12-26T13:52:12.855Z,3.80
2018-12-26T13:54:41.245Z,3.70
2018-12-26T13:57:09.620Z,3.70
2018-12-26T13:59:38.016Z,3.70
2018-12-26T14:02:06.383Z,3.70
2018-12-26T14:04:34.775Z,3.60
2018-12-26T14:07:03.463Z,3.70
2018-12-26T14:09:31.853Z,3.70
2018-12-26T14:12:00.229Z,3.60
2018-12-26T14:14:29.301Z,3.70
2018-12-26T14:16:57.984Z,3.60
2018-12-26T14:19:26.376Z,3.40
2018-12-26T14:21:56.114Z,3.40
2018-12-26T14:24:26.226Z,3.40
2018-12-26T14:26:54.691Z,3.30
2018-12-26T14:29:23.129Z,3.30
2018-12-26T14:31:51.461Z,3.30
2018-12-26T14:34:19.861Z,3.30
2018-12-26T14:36:48.236Z,3.40
2018-12-26T14:39:17.715Z,3.30
2018-12-26T14:41:46.367Z,3.20
2018-12-26T14:44:14.816Z,3.10
2018-12-26T14:46:43.192Z,3.10
2018-12-26T14:49:11.563Z,3.00
2018-12-26T14:51:39.955Z,3.00
2018-12-26T14:54:08.585Z,2.90
2018-12-26T14:56:37.045Z,2.90
2018-12-26T14:59:05.416Z,2.80
2018-12-26T15:01:33.872Z,2.70
2018-12-26T15:04:02.241Z,2.70
2018-12-26T15:06:30.814Z,2.70
2018-12-26T15:08:59.195Z,2.60
2018-12-26T15:11:27.591Z,2.60
2018-12-26T15:13:56.032Z,2.40
2018-12-26T15:16:24.724Z,2.10
2018-12-26T15:18:53.109Z,2.10
2018-12-26T15:21:21.498Z,2.00
2018-12-26T15:23:49.968Z,1.80
2018-12-26T15:26:18.372Z,1.60
2018-12-26T15:28:46.738Z,1.50
2018-12-26T15:31:15.144Z,1.40
2018-12-26T15:33:43.519Z,1.20
2018-12-26T15:36:11.924Z,1.10
2018-12-26T15:38:40.329Z,0.90
2018-12-26T15:41:08.717Z,0.80
2018-12-26T15:43:37.084Z,0.80
2018-12-26T15:46:05.481Z,0.70
2018-12-26T15:48:33.854Z,0.50
2018-12-26T15:51:02.248Z,0.50
2018-12-26T15:53:30.710Z,0.50
2018-12-26T15:55:59.472Z,0.50
2018-12-26T15:58:27.853Z,0.40
2018-12-26T16:00:57.250Z,0.40
2018-12-26T16:03:25.620Z,0.30
2018-12-26T16:05:54.028Z,0.40
2018-12-26T16:08:22.422Z,0.40
2018-12-26T16:10:50.909Z,0.20
2018-12-26T16:13:19.274Z,0.30
2018-12-26T16:15:47.657Z,0.40
2018-12-26T16:18:16.155Z,0.40
2018-12-26T16:20:44.536Z,0.40
2018-12-26T16:23:12.933Z,0.30
2018-12-26T16:25:41.416Z,0.20
2018-12-26T16:28:09.806Z,0.20
2018-12-26T16:30:45.965Z,0.10
2018-12-26T16:33:08.231Z,-0.10
2018-12-26T16:35:36.723Z,-0.20
2018-12-26T16:38:05.220Z,-0.20
2018-12-26T16:40:33.609Z,-0.30
2018-12-26T16:43:02.034Z,-0.30
2018-12-26T16:45:30.415Z,-0.40
2018-12-26T16:47:58.833Z,-0.40
2018-12-26T16:50:27.464Z,-0.40
2018-12-26T16:52:55.924Z,-0.50
2018-12-26T16:55:24.304Z,-0.50
2018-12-26T16:57:52.708Z,-0.60
2018-12-26T17:00:21.947Z,-0.60
2018-12-26T17:02:50.426Z,-0.70
2018-12-26T17:05:18.799Z,-0.70
2018-12-26T17:07:47.476Z,-0.80
2018-12-26T17:10:17.985Z,-0.80
2018-12-26T17:12:46.389Z,-0.90
2018-12-26T17:15:14.768Z,-0.70
2018-12-26T17:17:43.164Z,-0.80
2018-12-26T17:20:11.738Z,-0.90
2018-12-26T17:22:40.131Z,-1.00
2018-12-26T17:25:08.515Z,-1.10
2018-12-26T17:27:36.904Z,-1.00
2018-12-26T17:30:06.492Z,-1.00
2018-12-26T17:32:34.856Z,-0.80
2018-12-26T17:35:03.497Z,-0.70
2018-12-26T17:37:31.893Z,-0.70
2018-12-26T17:40:00.266Z,-0.70
2018-12-26T17:42:28.672Z,-0.70
2018-12-26T17:44:57.051Z,-0.70
2018-12-26T17:47:25.427Z,-0.80
2018-12-26T17:49:57.097Z,-0.80
2018-12-26T17:52:25.532Z,-0.90
2018-12-26T17:54:54.000Z,-0.80
2018-12-26T17:57:22.381Z,-0.80
2018-12-26T17:59:54.148Z,-0.80
2018-12-26T18:02:25.914Z,-0.80
2018-12-26T18:04:54.317Z,-0.90
2018-12-26T18:07:22.759Z,-1.00
2018-12-26T18:09:51.172Z,-1.00
2018-12-26T18:12:19.654Z,-0.90
2018-12-26T18:14:47.975Z,-0.80
2018-12-26T18:17:16.348Z,-0.70
2018-12-26T18:19:44.741Z,-0.70
2018-12-26T18:22:13.110Z,-0.70
2018-12-26T18:24:41.812Z,-0.70
2018-12-26T18:27:10.183Z,-0.80
2018-12-26T18:29:38.595Z,-0.90
2018-12-26T18:32:06.988Z,-0.80
2018-12-26T18:34:35.375Z,-0.80
2018-12-26T18:37:03.751Z,-0.70
2018-12-26T18:39:32.138Z,-0.70
2018-12-26T18:42:00.525Z,-0.70
2018-12-26T18:44:29.715Z,-0.70
2018-12-26T18:46:58.145Z,-0.80
2018-12-26T18:49:26.549Z,-0.80
2018-12-26T18:51:55.003Z,-0.90
2018-12-26T18:54:23.519Z,-1.00
2018-12-26T18:56:51.866Z,-1.00
2018-12-26T18:59:20.273Z,-1.00
2018-12-26T19:01:50.431Z,-1.00
2018-12-26T19:04:18.764Z,-1.00
2018-12-26T19:06:47.142Z,-0.90
2018-12-26T19:09:15.548Z,-0.80
2018-12-26T19:11:43.961Z,-0.80
2018-12-26T19:14:12.643Z,-0.90
2018-12-26T19:16:41.044Z,-1.00
2018-12-26T19:19:09.508Z,-1.00
2018-12-26T19:21:39.543Z,-1.00
2018-12-26T19:24:09.606Z,-0.90
2018-12-26T19:26:38.003Z,-0.90
2018-12-26T19:29:06.405Z,-0.90
2018-12-26T19:31:39.433Z,-0.90
2018-12-26T19:34:05.006Z,-1.00
2018-12-26T19:36:33.411Z,-1.10
2018-12-26T19:39:01.869Z,-1.10
2018-12-26T19:41:30.273Z,-1.10
2018-12-26T19:43:58.656Z,-1.20
2018-12-26T19:46:27.061Z,-1.30
2018-12-26T19:48:55.744Z,-1.30
2018-12-26T19:51:24.140Z,-1.50
2018-12-26T19:53:52.515Z,-1.50
2018-12-26T19:56:20.911Z,-1.50
2018-12-26T19:58:49.292Z,-1.60
2018-12-26T20:01:17.697Z,-1.60
2018-12-26T20:03:46.091Z,-1.60
2018-12-26T20:06:14.492Z,-1.50
2018-12-26T20:08:42.977Z,-1.40
2018-12-26T20:11:11.655Z,-1.40
2018-12-26T20:13:40.037Z,-1.40
2018-12-26T20:16:08.435Z,-1.30
2018-12-26T20:18:36.989Z,-1.40
2018-12-26T20:21:05.381Z,-1.50
2018-12-26T20:23:33.761Z,-1.50
2018-12-26T20:26:02.166Z,-1.50
2018-12-26T20:28:30.548Z,-1.50
2018-12-26T20:30:58.960Z,-1.50
2018-12-26T20:33:27.677Z,-1.50
2018-12-26T20:35:56.179Z,-1.50
2018-12-26T20:38:24.561Z,-1.50
2018-12-26T20:40:52.966Z,-1.50
2018-12-26T20:43:21.344Z,-1.40
2018-12-26T20:45:49.725Z,-1.30
2018-12-26T20:48:18.125Z,-1.30
2018-12-26T20:50:46.505Z,-1.20
2018-12-26T20:53:15.019Z,-1.10
2018-12-26T20:55:43.393Z,-0.90
2018-12-26T20:58:11.901Z,-0.90
2018-12-26T21:00:40.273Z,-0.80
2018-12-26T21:03:08.667Z,-0.80
2018-12-26T21:05:37.149Z,-0.90
2018-12-26T21:08:05.926Z,-1.00
2018-12-26T21:10:34.300Z,-1.10
2018-12-26T21:13:02.706Z,-1.10
2018-12-26T21:15:31.089Z,-1.20
2018-12-26T21:17:59.493Z,-1.20
2018-12-26T21:20:27.867Z,-1.20
2018-12-26T21:22:56.323Z,-1.20
2018-12-26T21:25:24.712Z,-1.20
2018-12-26T21:27:53.112Z,-1.20
2018-12-26T21:30:21.497Z,-1.20
2018-12-26T21:32:49.895Z,-1.30
2018-12-26T21:35:18.268Z,-1.30
2018-12-26T21:37:46.676Z,-1.40
2018-12-26T21:40:15.140Z,-1.40
2018-12-26T21:42:43.535Z,-1.40
2018-12-26T21:45:12.000Z,-1.50
2018-12-26T21:47:40.399Z,-1.60
2018-12-26T21:50:10.509Z,-1.60
2018-12-26T21:52:38.909Z,-1.50
2018-12-26T21:55:07.290Z,-1.40
2018-12-26T21:57:35.699Z,-1.40
2018-12-26T22:00:04.799Z,-1.50
2018-12-26T22:02:33.504Z,-1.50
2018-12-26T22:05:01.880Z,-1.60
2018-12-26T22:07:30.256Z,-1.60
2018-12-26T22:09:58.661Z,-1.60
2018-12-26T22:12:27.042Z,-1.60
2018-12-26T22:14:55.440Z,-1.60
2018-12-26T22:17:23.833Z,-1.60
2018-12-26T22:19:52.236Z,-1.60
2018-12-26T22:22:20.607Z,-1.70
2018-12-26T22:24:49.013Z,-1.70
2018-12-26T22:27:17.771Z,-1.70
2018-12-26T22:29:46.168Z,-1.70
2018-12-26T22:32:14.831Z,-1.70
2018-12-26T22:34:43.238Z,-1.70
2018-12-26T22:37:11.895Z,-1.70
2018-12-26T22:39:40.395Z,-1.70
2018-12-26T22:42:09.071Z,-1.70
2018-12-26T22:44:37.491Z,-1.70
2018-12-26T22:47:05.857Z,-1.60
2018-12-26T22:49:34.259Z,-1.60
2018-12-26T22:52:02.712Z,-1.50
2018-12-26T22:54:31.103Z,-1.60
2018-12-26T22:56:59.484Z,-1.50
2018-12-26T22:59:27.881Z,-1.50
2018-12-26T23:01:56.261Z,-1.40
2018-12-26T23:04:24.740Z,-1.40
2018-12-26T23:06:53.121Z,-1.40
2018-12-26T23:09:21.524Z,-1.40
2018-12-26T23:11:49.899Z,-1.40
2018-12-26T23:14:18.297Z,-1.50
2018-12-26T23:16:46.686Z,-1.50
2018-12-26T23:19:15.107Z,-1.50
2018-12-26T23:21:43.856Z,-1.50
2018-12-26T23:24:12.261Z,-1.50
2018-12-26T23:26:40.640Z,-1.50
2018-12-26T23:29:09.017Z,-1.50
2018-12-26T23:31:37.476Z,-1.50
2018-12-26T23:34:05.850Z,-1.50
2018-12-26T23:36:34.251Z,-1.60
2018-12-26T23:39:02.690Z,-1.60
2018-12-26T23:41:31.131Z,-1.70
2018-12-26T23:43:59.519Z,-1.70
2018-12-26T23:46:27.928Z,-1.80
2018-12-26T23:48:56.302Z,-1.80
2018-12-26T23:51:24.705Z,-1.90
2018-12-26T23:53:53.242Z,-1.90
2018-12-26T23:56:21.636Z,-1.90
2018-12-26T23:58:50.012Z,-1.80
